Time;durP1;ratioP1;P1;durP2;ratioP2;P2;SDS_P1;SDS_P2;PMS_P1;PMS_P2;Temp;Humidity;BMP_temperature;BMP_pressure;BME280_temperature;BME280_humidity;BME280_pressure;Samples;Min_cycle;Max_cycle;Signal;HPM_P1;HPM_P2
2022/09/13 00:00:43;;;;;;;2.25;1.50;;;;;;;-143.85;100.00;70650.75;5051868;28;20031;-74
2022/09/13 00:03:10;;;;;;;2.83;2.05;;;;;;;-143.85;100.00;70650.75;5051813;28;20123;-74
2022/09/13 00:05:37;;;;;;;5.13;2.33;;;;;;;-143.85;100.00;70650.75;5052085;28;20528;-75
2022/09/13 00:08:04;;;;;;;2.47;1.60;;;;;;;-143.85;100.00;70650.75;5051975;28;20124;-74
2022/09/13 00:10:31;;;;;;;2.80;2.60;;;;;;;-143.85;100.00;70650.75;5051886;28;20573;-77
2022/09/13 00:12:57;;;;;;;2.47;2.22;;;;;;;-143.85;100.00;70650.75;5051691;28;20033;-74
2022/09/13 00:15:22;;;;;;;3.75;1.75;;;;;;;-143.85;100.00;70650.75;5051781;28;20040;-76
2022/09/13 00:17:47;;;;;;;2.28;1.90;;;;;;;-143.85;100.00;70650.75;5051846;28;20028;-74
2022/09/13 00:20:13;;;;;;;2.38;2.15;;;;;;;-143.85;100.00;70650.75;5052281;28;20028;-75
2022/09/13 00:22:38;;;;;;;2.25;2.05;;;;;;;-143.85;100.00;70650.75;5052205;28;20055;-74
2022/09/13 00:25:05;;;;;;;3.10;2.00;;;;;;;-143.85;100.00;70650.75;5052068;28;20079;-76
2022/09/13 00:27:32;;;;;;;2.30;1.63;;;;;;;-143.85;100.00;70650.75;5051560;28;20049;-75
2022/09/13 00:29:58;;;;;;;2.22;1.90;;;;;;;-143.85;100.00;70650.75;5053106;28;20027;-75
2022/09/13 00:32:23;;;;;;;1.90;1.60;;;;;;;-143.85;100.00;70650.75;5053339;28;20100;-74
2022/09/13 00:34:49;;;;;;;2.03;1.88;;;;;;;-143.85;100.00;70650.75;5051785;28;20025;-74
2022/09/13 00:37:14;;;;;;;3.83;1.80;;;;;;;-143.85;100.00;70650.75;5051868;28;20025;-74
2022/09/13 00:39:40;;;;;;;3.95;2.22;;;;;;;-143.85;100.00;70650.75;5052670;28;20489;-74
2022/09/13 00:42:13;;;;;;;3.28;2.28;;;;;;;-143.85;100.00;70650.75;5051846;28;20033;-74
2022/09/13 00:44:54;;;;;;;3.08;2.10;;;;;;;-143.85;100.00;70650.75;5051787;28;20044;-75
2022/09/13 00:47:31;;;;;;;2.33;1.88;;;;;;;-143.85;100.00;70650.75;5052073;28;20069;-75
2022/09/13 00:50:18;;;;;;;1.70;1.38;;;;;;;-143.85;100.00;70650.75;5052146;28;20047;-75
2022/09/13 00:52:50;;;;;;;1.60;1.40;;;;;;;-143.85;100.00;70650.75;5051112;28;20091;-74
2022/09/13 00:55:21;;;;;;;2.30;1.58;;;;;;;-143.85;100.00;70650.75;5051665;28;20025;-74
2022/09/13 00:57:48;;;;;;;2.63;2.05;;;;;;;-143.85;100.00;70650.75;5051638;28;20090;-74
2022/09/13 01:00:17;;;;;;;3.30;2.38;;;;;;;-143.85;100.00;70650.75;5051653;28;20021;-75
2022/09/13 01:02:56;;;;;;;1.73;1.38;;;;;;;-143.85;100.00;70650.75;5052045;28;20029;-74
2022/09/13 01:05:24;;;;;;;2.35;1.60;;;;;;;-143.85;100.00;70650.75;5051969;28;20040;-75
2022/09/13 01:07:50;;;;;;;;;;;;;;;-143.85;100.00;70650.75;5053058;28;20051;-74
2022/09/13 01:10:16;;;;;;;3.65;1.90;;;;;;;-143.85;100.00;70650.75;5055437;28;20384;-76
2022/09/13 01:12:54;;;;;;;3.92;2.22;;;;;;;-143.85;100.00;70650.75;5055473;28;20494;-76
2022/09/13 01:15:21;;;;;;;3.75;1.38;;;;;;;-143.85;100.00;70650.75;5055304;28;20068;-74
2022/09/13 01:17:47;;;;;;;6.65;2.15;;;;;;;-143.85;100.00;70650.75;5054813;28;20132;-76
2022/09/13 01:20:13;;;;;;;2.20;1.80;;;;;;;-143.85;100.00;70650.75;5055487;28;20412;-76
2022/09/13 01:22:53;;;;;;;3.15;2.03;;;;;;;-143.85;100.00;70650.75;5056198;28;20021;-74
2022/09/13 01:25:37;;;;;;;2.10;1.90;;;;;;;-143.85;100.00;70650.75;5056743;28;20413;-74
2022/09/13 01:28:40;;;;;;;2.20;1.77;;;;;;;-143.85;100.00;70650.75;5058186;28;20036;-74
2022/09/13 01:31:32;;;;;;;1.88;1.23;;;;;;;-143.85;100.00;70650.75;5058406;28;20447;-75
2022/09/13 01:34:22;;;;;;;2.13;1.92;;;;;;;-143.85;100.00;70650.75;5058275;28;20024;-74
2022/09/13 01:37:09;;;;;;;7.30;1.85;;;;;;;-143.85;100.00;70650.75;5058601;28;20450;-75
2022/09/13 01:40:04;;;;;;;3.08;2.17;;;;;;;-143.85;100.00;70650.75;5058431;28;20024;-74
2022/09/13 01:42:52;;;;;;;2.47;1.63;;;;;;;-143.85;100.00;70650.75;5075855;28;20029;-74
2022/09/13 01:45:41;;;;;;;2.83;2.03;;;;;;;-143.85;100.00;70650.75;5058000;28;20488;-76
2022/09/13 01:48:07;;;;;;;4.57;1.73;;;;;;;-143.85;100.00;70650.75;5058229;28;20274;-75
2022/09/13 01:50:43;;;;;;;2.45;2.00;;;;;;;-143.85;100.00;70650.75;5058020;28;20032;-73
2022/09/13 01:53:29;;;;;;;2.42;2.20;;;;;;;-143.85;100.00;70650.75;5058069;28;20024;-74
2022/09/13 01:56:07;;;;;;;2.95;1.88;;;;;;;-143.85;100.00;70650.75;5058154;28;20043;-76
2022/09/13 01:58:32;;;;;;;;;;;;;;;-143.85;100.00;70650.75;5058019;28;20028;-74
2022/09/13 02:01:03;;;;;;;2.63;2.00;;;;;;;-143.85;100.00;70650.75;5057606;28;19915;-76
2022/09/13 02:03:44;;;;;;;2.65;2.15;;;;;;;-143.85;100.00;70650.75;5057268;28;20404;-74
2022/09/13 02:06:17;;;;;;;5.00;1.60;;;;;;;-143.85;100.00;70650.75;5058022;28;20056;-74
2022/09/13 02:08:48;;;;;;;1.90;1.63;;;;;;;-143.85;100.00;70650.75;5057719;28;20056;-75
2022/09/13 02:11:16;;;;;;;2.83;1.77;;;;;;;-143.85;100.00;70650.75;5057593;28;20025;-74
2022/09/13 02:14:05;;;;;;;2.13;1.60;;;;;;;-143.85;100.00;70650.75;5057475;28;20520;-75
2022/09/13 02:16:47;;;;;;;2.10;1.83;;;;;;;-143.85;100.00;70650.75;5060595;28;20036;-75
2022/09/13 02:19:20;;;;;;;3.63;2.08;;;;;;;-143.85;100.00;70650.75;5057219;28;20055;-74
2022/09/13 02:21:55;;;;;;;2.17;1.95;;;;;;;-143.85;100.00;70650.75;5057178;28;20029;-75
2022/09/13 02:24:41;;;;;;;2.78;2.10;;;;;;;-143.85;100.00;70650.75;5056899;28;20024;-74
2022/09/13 02:27:17;;;;;;;2.17;1.98;;;;;;;-143.85;100.00;70650.75;5053367;28;20088;-74
2022/09/13 02:29:46;;;;;;;2.50;1.45;;;;;;;-143.85;100.00;70650.75;5055051;28;20037;-75
2022/09/13 02:32:21;;;;;;;1.92;1.73;;;;;;;-143.85;100.00;70650.75;5053733;28;20036;-75
2022/09/13 02:34:59;;;;;;;1.55;1.27;;;;;;;-143.85;100.00;70650.75;5053722;28;20171;-74
2022/09/13 02:37:28;;;;;;;3.38;2.20;;;;;;;-143.85;100.00;70650.75;5053828;28;20036;-74
2022/09/13 02:40:03;;;;;;;2.90;1.92;;;;;;;-143.85;100.00;70650.75;5053533;28;20503;-74
2022/09/13 02:42:51;;;;;;;4.78;1.85;;;;;;;-143.85;100.00;70650.75;5053718;28;20028;-74
2022/09/13 02:45:25;;;;;;;2.03;1.80;;;;;;;-143.85;100.00;70650.75;5053503;28;20021;-75
2022/09/13 02:48:03;;;;;;;2.63;1.60;;;;;;;-143.85;100.00;70650.75;5056436;28;20044;-76
2022/09/13 02:51:02;;;;;;;2.10;1.52;;;;;;;-143.85;100.00;70650.75;5055538;28;20519;-77
2022/09/13 02:54:00;;;;;;;2.10;1.98;;;;;;;-143.85;100.00;70650.75;5049624;28;20037;-76
2022/09/13 02:56:53;;;;;;;2.08;1.75;;;;;;;-143.85;100.00;70650.75;5053885;28;20031;-75
2022/09/13 02:59:22;;;;;;;4.20;1.95;;;;;;;-143.85;100.00;70650.75;5053747;28;20049;-75
2022/09/13 03:01:56;;;;;;;;;;;;;;;-143.85;100.00;70650.75;5054016;28;20028;-76
2022/09/13 03:04:22;;;;;;;1.42;1.33;;;;;;;-143.85;100.00;70650.75;5053966;28;19909;-76
2022/09/13 03:06:49;;;;;;;1.85;1.70;;;;;;;-143.85;100.00;70650.75;5053498;28;20033;-77
2022/09/13 03:09:15;;;;;;;1.30;1.20;;;;;;;-143.85;100.00;70650.75;5053606;28;20021;-74
2022/09/13 03:12:09;;;;;;;2.75;1.75;;;;;;;-143.85;100.00;70650.75;5053274;28;20024;-77
2022/09/13 03:14:48;;;;;;;2.50;1.50;;;;;;;-143.85;100.00;70650.75;5054419;28;20032;-76
2022/09/13 03:17:19;;;;;;;1.73;1.52;;;;;;;-143.85;100.00;70650.75;5053543;28;20025;-75
2022/09/13 03:20:08;;;;;;;2.22;1.90;;;;;;;-143.85;100.00;70650.75;5053058;28;20032;-75
2022/09/13 03:22:39;;;;;;;1.67;1.55;;;;;;;-143.85;100.00;70650.75;5052840;28;20029;-74
2022/09/13 03:25:07;;;;;;;1.90;1.70;;;;;;;-143.85;100.00;70650.75;5052743;28;20036;-75
2022/09/13 03:27:42;;;;;;;;;;;;;;;-143.85;100.00;70650.75;5053088;28;20045;-75
2022/09/13 03:30:11;;;;;;;2.53;1.67;;;;;;;-143.85;100.00;70650.75;5052605;28;19924;-75
2022/09/13 03:32:49;;;;;;;1.73;1.33;;;;;;;-143.85;100.00;70650.75;5051919;28;20068;-75
2022/09/13 03:35:23;;;;;;;2.78;1.63;;;;;;;-143.85;100.00;70650.75;5052613;28;20041;-74
2022/09/13 03:38:16;;;;;;;1.83;1.73;;;;;;;-143.85;100.00;70650.75;5052706;28;20033;-75
2022/09/13 03:41:04;;;;;;;1.48;1.38;;;;;;;-143.85;100.00;70650.75;5052571;28;20029;-76
2022/09/13 03:43:40;;;;;;;3.40;2.03;;;;;;;-143.85;100.00;70650.75;5052436;28;20032;-73
2022/09/13 03:46:14;;;;;;;3.00;2.08;;;;;;;-143.85;100.00;70650.75;5053766;28;20032;-76
2022/09/13 03:48:42;;;;;;;1.27;1.17;;;;;;;-143.85;100.00;70650.75;5052641;28;20408;-75
2022/09/13 03:51:10;;;;;;;2.35;1.85;;;;;;;-143.85;100.00;70650.75;5052361;28;20420;-76
2022/09/13 03:53:42;;;;;;;2.88;1.73;;;;;;;-143.85;100.00;70650.75;5052258;28;20446;-75
2022/09/13 03:56:13;;;;;;;8.82;2.58;;;;;;;-143.85;100.00;70650.75;5052214;28;20029;-75
2022/09/13 03:58:39;;;;;;;1.75;1.65;;;;;;;-143.85;100.00;70650.75;5052021;28;20021;-74
2022/09/13 04:01:04;;;;;;;1.85;1.52;;;;;;;-143.85;100.00;70650.75;5051931;28;20032;-75
2022/09/13 04:03:30;;;;;;;1.80;1.67;;;;;;;-143.85;100.00;70650.75;5051982;28;20029;-74
2022/09/13 04:05:55;;;;;;;1.30;1.20;;;;;;;-143.85;100.00;70650.75;5052116;28;20061;-73
2022/09/13 04:08:21;;;;;;;2.40;1.83;;;;;;;-143.85;100.00;70650.75;5051688;28;20025;-75
2022/09/13 04:10:50;;;;;;;2.10;1.67;;;;;;;-143.85;100.00;70650.75;5052060;28;20029;-76
2022/09/13 04:13:16;;;;;;;1.77;1.40;;;;;;;-143.85;100.00;70650.75;5051863;28;20021;-77
2022/09/13 04:15:42;;;;;;;2.05;1.85;;;;;;;-143.85;100.00;70650.75;5051976;28;20116;-76
2022/09/13 04:18:08;;;;;;;1.45;1.20;;;;;;;-143.85;100.00;70650.75;5051918;28;20028;-76
2022/09/13 04:20:34;;;;;;;2.25;1.58;;;;;;;-143.85;100.00;70650.75;5051596;28;20062;-75
2022/09/13 04:23:00;;;;;;;1.85;1.30;;;;;;;-143.85;100.00;70650.75;5051984;28;20032;-75
2022/09/13 04:25:26;;;;;;;2.17;1.83;;;;;;;-143.85;100.00;70650.75;5054179;28;20401;-75
2022/09/13 04:27:57;;;;;;;1.65;1.20;;;;;;;-143.85;100.00;70650.75;5055150;28;20033;-75
2022/09/13 04:30:22;;;;;;;2.17;1.98;;;;;;;-143.85;100.00;70650.75;5054939;28;20020;-74
2022/09/13 04:32:48;;;;;;;4.65;1.52;;;;;;;-143.85;100.00;70650.75;5054918;28;20077;-74
2022/09/13 04:35:16;;;;;;;1.60;1.00;;;;;;;-143.85;100.00;70650.75;5054993;28;20499;-74
2022/09/13 04:37:42;;;;;;;4.60;1.40;;;;;;;-143.85;100.00;70650.75;5054925;28;20430;-76
2022/09/13 04:40:08;;;;;;;2.05;1.65;;;;;;;-143.85;100.00;70650.75;5054911;28;20089;-75
2022/09/13 04:42:34;;;;;;;2.70;1.70;;;;;;;-143.85;100.00;70650.75;5056200;28;20020;-75
2022/09/13 04:45:00;;;;;;;2.28;1.60;;;;;;;-143.85;100.00;70650.75;5058916;28;20036;-75
2022/09/13 04:47:26;;;;;;;2.40;2.03;;;;;;;-143.85;100.00;70650.75;5059002;28;20048;-74
2022/09/13 04:49:51;;;;;;;1.42;1.23;;;;;;;-143.85;100.00;70650.75;5059032;28;20035;-75
2022/09/13 04:52:17;;;;;;;1.98;1.73;;;;;;;-143.85;100.00;70650.75;5058717;28;20027;-75
2022/09/13 04:54:42;;;;;;;2.85;1.65;;;;;;;-143.85;100.00;70650.75;5058949;28;20515;-74
2022/09/13 04:57:08;;;;;;;1.52;1.35;;;;;;;-143.85;100.00;70650.75;5058753;28;20063;-74
2022/09/13 04:59:33;;;;;;;2.03;1.60;;;;;;;-143.85;100.00;70650.75;5058586;28;20028;-74
2022/09/13 05:01:59;;;;;;;9.32;2.58;;;;;;;-143.85;100.00;70650.75;5058649;28;20120;-75
2022/09/13 05:04:24;;;;;;;2.33;2.13;;;;;;;-143.85;100.00;70650.75;5058785;28;20131;-76
2022/09/13 05:06:50;;;;;;;3.40;1.55;;;;;;;-143.85;100.00;70650.75;5058496;28;20020;-75
2022/09/13 05:09:15;;;;;;;2.38;2.15;;;;;;;-143.85;100.00;70650.75;5058879;28;20100;-74
2022/09/13 05:11:42;;;;;;;2.92;2.05;;;;;;;-143.85;100.00;70650.75;5058380;28;20374;-75
2022/09/13 05:14:11;;;;;;;3.28;1.80;;;;;;;-143.85;100.00;70650.75;5058730;28;20028;-76
2022/09/13 05:16:37;;;;;;;1.42;1.33;;;;;;;-143.85;100.00;70650.75;5058460;28;20029;-74
2022/09/13 05:19:02;;;;;;;1.90;1.58;;;;;;;-143.85;100.00;70650.75;5058849;28;20036;-77
2022/09/13 05:21:29;;;;;;;1.98;1.80;;;;;;;-143.85;100.00;70650.75;5060492;28;20024;-75
2022/09/13 05:23:55;;;;;;;1.70;1.60;;;;;;;-143.85;100.00;70650.75;5059018;28;20025;-76
2022/09/13 05:26:23;;;;;;;1.95;1.30;;;;;;;-143.85;100.00;70650.75;5058210;28;20087;-76
2022/09/13 05:28:48;;;;;;;2.60;1.75;;;;;;;-143.85;100.00;70650.75;5058616;28;20137;-78
2022/09/13 05:31:20;;;;;;;1.95;1.50;;;;;;;-143.85;100.00;70650.75;5059069;28;20037;-75
2022/09/13 05:33:47;;;;;;;1.67;1.58;;;;;;;-143.85;100.00;70650.75;5058828;28;20024;-77
2022/09/13 05:36:13;;;;;;;1.17;1.05;;;;;;;-143.85;100.00;70650.75;5059198;28;20056;-76
2022/09/13 05:38:39;;;;;;;3.80;1.48;;;;;;;-143.85;100.00;70650.75;5058715;28;20021;-75
2022/09/13 05:41:05;;;;;;;3.03;1.20;;;;;;;-143.85;100.00;70650.75;5058273;28;20507;-74
2022/09/13 05:43:33;;;;;;;1.23;1.10;;;;;;;-143.85;100.00;70650.75;5058105;28;20024;-75
2022/09/13 05:46:13;;;;;;;1.50;1.40;;;;;;;-143.85;100.00;70650.75;5058041;28;20059;-74
2022/09/13 05:48:39;;;;;;;1.60;1.30;;;;;;;-143.85;100.00;70650.75;5058003;28;20131;-78
2022/09/13 05:51:16;;;;;;;3.70;1.13;;;;;;;-143.85;100.00;70650.75;5058217;28;20023;-76
2022/09/13 05:53:43;;;;;;;1.30;1.20;;;;;;;-143.85;100.00;70650.75;5057463;28;20039;-78
2022/09/13 05:56:12;;;;;;;2.22;1.15;;;;;;;-143.85;100.00;70650.75;5057976;28;20025;-77
2022/09/13 05:58:39;;;;;;;0.82;0.80;;;;;;;-143.85;100.00;70650.75;5057872;28;20036;-75
2022/09/13 06:01:05;;;;;;;11.25;1.23;;;;;;;-143.85;100.00;70650.75;5058028;28;20592;-78
2022/09/13 06:03:30;;;;;;;1.15;1.08;;;;;;;-143.85;100.00;70650.75;5058158;28;20033;-76
2022/09/13 06:05:57;;;;;;;2.28;1.73;;;;;;;-143.85;100.00;70650.75;5057424;28;20412;-73
2022/09/13 06:08:28;;;;;;;0.85;0.85;;;;;;;-143.85;100.00;70650.75;5057364;28;20037;-78
2022/09/13 06:11:04;;;;;;;1.80;1.38;;;;;;;-143.85;100.00;70650.75;5058079;28;20458;-74
2022/09/13 06:13:30;;;;;;;1.90;1.10;;;;;;;-143.85;100.00;70650.75;5056913;28;20032;-74
2022/09/13 06:15:57;;;;;;;1.85;1.63;;;;;;;-143.85;100.00;70650.75;5056738;28;20033;-73
2022/09/13 06:18:26;;;;;;;1.37;1.27;;;;;;;-143.85;100.00;70650.75;5056744;28;20043;-75
2022/09/13 06:20:59;;;;;;;1.40;1.30;;;;;;;-143.85;100.00;70650.75;5057154;28;20454;-75
2022/09/13 06:23:25;;;;;;;1.05;0.90;;;;;;;-143.85;100.00;70650.75;5057036;28;20571;-74
2022/09/13 06:25:59;;;;;;;2.53;1.00;;;;;;;-143.85;100.00;70650.75;5053052;28;20049;-74
2022/09/13 06:28:24;;;;;;;1.23;1.13;;;;;;;-143.85;100.00;70650.75;5053355;28;20048;-74
2022/09/13 06:30:50;;;;;;;1.48;0.95;;;;;;;-143.85;100.00;70650.75;5053296;28;20036;-74
2022/09/13 06:33:15;;;;;;;1.15;0.93;;;;;;;-143.85;100.00;70650.75;5053475;28;20473;-74
2022/09/13 06:35:40;;;;;;;1.63;1.00;;;;;;;-143.85;100.00;70650.75;5054488;28;20130;-75
2022/09/13 06:38:06;;;;;;;1.35;1.08;;;;;;;-143.85;100.00;70650.75;5053145;28;20028;-73
2022/09/13 06:40:31;;;;;;;0.50;0.50;;;;;;;-143.85;100.00;70650.75;5053014;28;20029;-73
2022/09/13 06:42:57;;;;;;;0.82;0.82;;;;;;;-143.85;100.00;70650.75;5054480;28;20107;-74
2022/09/13 06:45:22;;;;;;;1.15;0.90;;;;;;;-143.85;100.00;70650.75;5053040;28;20029;-74
2022/09/13 06:47:48;;;;;;;1.75;1.30;;;;;;;-143.85;100.00;70650.75;5052705;28;20021;-74
2022/09/13 06:50:13;;;;;;;0.65;0.65;;;;;;;-143.85;100.00;70650.75;5052953;28;20025;-73
2022/09/13 06:52:39;;;;;;;0.95;0.80;;;;;;;-143.85;100.00;70650.75;5052857;28;20075;-74
2022/09/13 06:55:04;;;;;;;1.33;1.15;;;;;;;-143.85;100.00;70650.75;5052826;28;20035;-75
2022/09/13 06:57:31;;;;;;;0.77;0.77;;;;;;;-143.85;100.00;70650.75;5052788;28;20115;-74
2022/09/13 06:59:56;;;;;;;1.23;0.90;;;;;;;-143.85;100.00;70650.75;5052477;28;20036;-76
2022/09/13 07:02:23;;;;;;;1.10;1.00;;;;;;;-143.85;100.00;70650.75;5052632;28;20021;-77
2022/09/13 07:04:49;;;;;;;2.13;0.87;;;;;;;-143.85;100.00;70650.75;5052583;28;20032;-74
2022/09/13 07:07:14;;;;;;;1.20;1.05;;;;;;;-143.85;100.00;70650.75;5051453;28;20037;-79
2022/09/13 07:09:41;;;;;;;1.00;0.90;;;;;;;-143.85;100.00;70650.75;5052362;28;20024;-73
2022/09/13 07:12:07;;;;;;;0.82;0.80;;;;;;;-143.85;100.00;70650.75;5052550;28;20037;-74
2022/09/13 07:14:32;;;;;;;0.88;0.80;;;;;;;-143.85;100.00;70650.75;5053794;28;20027;-73
2022/09/13 07:16:59;;;;;;;2.28;0.55;;;;;;;-143.85;100.00;70650.75;5052426;28;20033;-75
2022/09/13 07:19:26;;;;;;;2.58;0.82;;;;;;;-143.85;100.00;70650.75;5053602;28;20484;-74
2022/09/13 07:21:53;;;;;;;1.10;0.88;;;;;;;-143.85;100.00;70650.75;5053505;28;20033;-74
2022/09/13 07:24:19;;;;;;;0.73;0.68;;;;;;;-143.85;100.00;70650.75;5052220;28;20143;-73
2022/09/13 07:26:46;;;;;;;0.80;0.80;;;;;;;-143.85;100.00;70650.75;5051857;28;20059;-74
2022/09/13 07:29:15;;;;;;;0.63;0.63;;;;;;;-143.85;100.00;70650.75;5052357;28;20416;-73
2022/09/13 07:31:43;;;;;;;0.95;0.70;;;;;;;-143.85;100.00;70650.75;5052095;28;20496;-73
2022/09/13 07:34:17;;;;;;;0.50;0.50;;;;;;;-143.85;100.00;70650.75;5053938;28;20032;-74
2022/09/13 07:36:43;;;;;;;0.90;0.70;;;;;;;-143.85;100.00;70650.75;5052034;28;20028;-79
2022/09/13 07:39:09;;;;;;;0.50;0.50;;;;;;;-143.85;100.00;70650.75;5053106;28;20021;-78
2022/09/13 07:41:36;;;;;;;0.80;0.65;;;;;;;-143.85;100.00;70650.75;5051746;28;20028;-79
2022/09/13 07:44:03;;;;;;;1.08;0.80;;;;;;;-143.85;100.00;70650.75;5052389;28;20124;-77
2022/09/13 07:46:35;;;;;;;0.57;0.57;;;;;;;-143.85;100.00;70650.75;5051987;28;20052;-74
2022/09/13 07:49:01;;;;;;;0.60;0.60;;;;;;;-143.85;100.00;70650.75;5053145;28;20453;-75
2022/09/13 07:51:29;;;;;;;0.73;0.73;;;;;;;-143.85;100.00;70650.75;5051991;28;20032;-75
2022/09/13 07:53:57;;;;;;;0.85;0.60;;;;;;;-143.85;100.00;70650.75;5052439;28;20029;-75
2022/09/13 07:56:26;;;;;;;0.82;0.82;;;;;;;-143.85;100.00;70650.75;5053219;28;20496;-79
2022/09/13 07:58:53;;;;;;;1.00;0.90;;;;;;;-143.85;100.00;70650.75;5051969;28;20060;-77
2022/09/13 08:01:28;;;;;;;0.85;0.60;;;;;;;-143.85;100.00;70650.75;5052201;28;20149;-79
2022/09/13 08:03:59;;;;;;;7.22;1.35;;;;;;;-143.85;100.00;70650.75;5053144;28;20068;-74
2022/09/13 08:06:27;;;;;;;0.75;0.75;;;;;;;-143.85;100.00;70650.75;5051993;28;20055;-78
2022/09/13 08:09:02;;;;;;;;;;;;;;;-143.85;100.00;70650.75;5052890;28;20046;-77
2022/09/13 08:11:30;;;;;;;0.80;0.70;;;;;;;-143.85;100.00;70650.75;5051963;28;19908;-78
2022/09/13 08:13:57;;;;;;;0.65;0.65;;;;;;;-143.85;100.00;70650.75;5051636;28;20029;-75
2022/09/13 08:16:24;;;;;;;0.60;0.60;;;;;;;-143.85;100.00;70650.75;5051600;28;20497;-80
2022/09/13 08:18:52;;;;;;;0.50;0.50;;;;;;;-143.85;100.00;70650.75;5051564;28;20071;-76
2022/09/13 08:21:19;;;;;;;0.63;0.50;;;;;;;-143.85;100.00;70650.75;5051933;28;20025;-76
2022/09/13 08:23:45;;;;;;;0.60;0.60;;;;;;;-143.85;100.00;70650.75;5052870;28;20029;-80
2022/09/13 08:26:14;;;;;;;0.70;0.70;;;;;;;-143.85;100.00;70650.75;5051041;28;20105;-76
2022/09/13 08:28:42;;;;;;;0.60;0.60;;;;;;;-143.85;100.00;70650.75;5052332;28;20045;-78
2022/09/13 08:31:14;;;;;;;0.50;0.50;;;;;;;-143.85;100.00;70650.75;5051435;28;20035;-75
2022/09/13 08:33:47;;;;;;;0.55;0.55;;;;;;;-143.85;100.00;70650.75;5051566;28;20451;-75
2022/09/13 08:36:14;;;;;;;2.88;0.57;;;;;;;-143.85;100.00;70650.75;5051499;28;20033;-74
2022/09/13 08:38:50;;;;;;;0.40;0.40;;;;;;;-143.85;100.00;70650.75;5052599;28;20028;-75
2022/09/13 08:41:26;;;;;;;0.25;0.25;;;;;;;-143.85;100.00;70650.75;5051540;28;20021;-75
2022/09/13 08:44:04;;;;;;;0.80;0.73;;;;;;;-143.85;100.00;70650.75;5051645;28;20040;-73
2022/09/13 08:46:40;;;;;;;1.20;0.60;;;;;;;-143.85;100.00;70650.75;5051244;28;20025;-74
2022/09/13 08:49:19;;;;;;;0.45;0.45;;;;;;;-143.85;100.00;70650.75;5051504;28;20455;-74
2022/09/13 08:51:54;;;;;;;0.60;0.60;;;;;;;-143.85;100.00;70650.75;5051128;28;20405;-74
2022/09/13 08:54:21;;;;;;;0.40;0.40;;;;;;;-143.85;100.00;70650.75;5051724;28;20033;-74
2022/09/13 08:56:57;;;;;;;0.60;0.50;;;;;;;-143.85;100.00;70650.75;5051752;28;20036;-76
2022/09/13 08:59:58;;;;;;;0.35;0.35;;;;;;;-143.85;100.00;70650.75;5051283;28;20470;-80
2022/09/13 09:02:29;;;;;;;0.93;0.65;;;;;;;-143.85;100.00;70650.75;5018335;28;20501;-76
2022/09/13 09:04:58;;;;;;;0.38;0.38;;;;;;;-143.85;100.00;70650.75;5056312;28;20035;-76
2022/09/13 09:07:32;;;;;;;0.65;0.50;;;;;;;-143.85;100.00;70650.75;5056048;28;20032;-75
2022/09/13 09:10:22;;;;;;;0.77;0.50;;;;;;;-143.85;100.00;70650.75;5054975;28;20036;-75
2022/09/13 09:12:51;;;;;;;2.25;0.88;;;;;;;-143.85;100.00;70650.75;5053284;28;20098;-74
2022/09/13 09:15:23;;;;;;;0.30;0.30;;;;;;;-143.85;100.00;70650.75;5051605;28;20546;-75
2022/09/13 09:18:26;;;;;;;0.40;0.40;;;;;;;-143.85;100.00;70650.75;5051726;28;20024;-74
2022/09/13 09:20:55;;;;;;;0.40;0.40;;;;;;;-143.85;100.00;70650.75;5051863;28;20488;-80
2022/09/13 09:23:29;;;;;;;0.40;0.40;;;;;;;-143.85;100.00;70650.75;5050728;28;20023;-79
2022/09/13 09:26:17;;;;;;;1.98;0.55;;;;;;;-143.85;100.00;70650.75;5050581;28;20049;-76
2022/09/13 09:28:51;;;;;;;0.77;0.60;;;;;;;-143.85;100.00;70650.75;5050680;28;20037;-76
2022/09/13 09:31:47;;;;;;;3.00;0.63;;;;;;;-143.85;100.00;70650.75;5055176;28;20032;-75
2022/09/13 09:34:41;;;;;;;0.35;0.35;;;;;;;-143.85;100.00;70650.75;5054352;28;20064;-74
2022/09/13 09:37:20;;;;;;;0.75;0.55;;;;;;;-143.85;100.00;70650.75;5055074;28;20033;-76
2022/09/13 09:39:47;;;;;;;1.95;0.45;;;;;;;-143.85;100.00;70650.75;5054590;28;20033;-73
2022/09/13 09:42:17;;;;;;;0.40;0.40;;;;;;;-143.85;100.00;70650.75;5054405;28;20033;-74
2022/09/13 09:44:48;;;;;;;0.50;0.50;;;;;;;-143.85;100.00;70650.75;5055283;28;20025;-74
2022/09/13 09:47:23;;;;;;;0.57;0.40;;;;;;;-143.85;100.00;70650.75;5054158;28;20178;-74
2022/09/13 09:50:11;;;;;;;0.40;0.32;;;;;;;-143.85;100.00;70650.75;5054115;28;20075;-78
2022/09/13 09:52:38;;;;;;;;;;;;;;;-143.85;100.00;70650.75;5055062;28;20124;-74
2022/09/13 09:55:25;;;;;;;0.63;0.47;;;;;;;-143.85;100.00;70650.75;5055495;28;19920;-73
2022/09/13 09:57:55;;;;;;;0.65;0.60;;;;;;;-143.85;100.00;70650.75;5054056;28;20021;-74
2022/09/13 10:00:24;;;;;;;0.85;0.40;;;;;;;-143.85;100.00;70650.75;5053716;28;20033;-77
2022/09/13 10:02:53;;;;;;;1.85;1.58;;;;;;;-143.85;100.00;70650.75;5053912;28;20102;-77
2022/09/13 10:05:22;;;;;;;0.40;0.40;;;;;;;-143.85;100.00;70650.75;5054209;28;20112;-74
2022/09/13 10:08:04;;;;;;;0.65;0.65;;;;;;;-143.85;100.00;70650.75;5055028;28;20059;-76
2022/09/13 10:10:41;;;;;;;0.40;0.40;;;;;;;-143.85;100.00;70650.75;5054405;28;20029;-74
2022/09/13 10:13:15;;;;;;;0.45;0.45;;;;;;;-143.85;100.00;70650.75;5053812;28;20025;-74
2022/09/13 10:15:57;;;;;;;0.45;0.45;;;;;;;-143.85;100.00;70650.75;5053977;28;20029;-75
2022/09/13 10:18:24;;;;;;;0.63;0.63;;;;;;;-143.85;100.00;70650.75;5053999;28;20025;-75
2022/09/13 10:21:02;;;;;;;0.43;0.43;;;;;;;-143.85;100.00;70650.75;5053522;28;20025;-78
2022/09/13 10:23:28;;;;;;;0.28;0.28;;;;;;;-143.85;100.00;70650.75;5053417;28;20033;-73
2022/09/13 10:26:01;;;;;;;13.85;0.85;;;;;;;-143.85;100.00;70650.75;5052786;28;20519;-75
2022/09/13 10:28:32;;;;;;;0.55;0.55;;;;;;;-143.85;100.00;70650.75;5053707;28;20033;-74
2022/09/13 10:31:10;;;;;;;1.67;0.80;;;;;;;-143.85;100.00;70650.75;5053622;28;20072;-80
2022/09/13 10:33:40;;;;;;;0.38;0.38;;;;;;;-143.85;100.00;70650.75;5053562;28;20040;-75
2022/09/13 10:36:16;;;;;;;2.92;0.60;;;;;;;-143.85;100.00;70650.75;5053489;28;20025;-78
2022/09/13 10:38:56;;;;;;;0.77;0.77;;;;;;;-143.85;100.00;70650.75;5053901;28;20029;-79
2022/09/13 10:41:25;;;;;;;2.63;0.50;;;;;;;-143.85;100.00;70650.75;5054414;28;20033;-73
2022/09/13 10:43:59;;;;;;;0.77;0.77;;;;;;;-143.85;100.00;70650.75;5054796;28;20064;-75
2022/09/13 10:46:28;;;;;;;0.50;0.50;;;;;;;-143.85;100.00;70650.75;5053019;28;20110;-75
2022/09/13 10:48:56;;;;;;;0.70;0.70;;;;;;;-143.85;100.00;70650.75;5053181;28;20138;-73
2022/09/13 10:51:34;;;;;;;0.40;0.40;;;;;;;-143.85;100.00;70650.75;5054744;28;20037;-75
2022/09/13 10:54:33;;;;;;;0.88;0.55;;;;;;;-143.85;100.00;70650.75;5054458;28;20033;-80
2022/09/13 10:56:59;;;;;;;0.85;0.85;;;;;;;-143.85;100.00;70650.75;5053221;28;20029;-73
2022/09/13 10:59:29;;;;;;;0.40;0.40;;;;;;;-143.85;100.00;70650.75;5054318;28;20029;-73
2022/09/13 11:02:08;;;;;;;1.77;0.52;;;;;;;-143.85;100.00;70650.75;5054240;28;20110;-74
2022/09/13 11:04:42;;;;;;;0.70;0.45;;;;;;;-143.85;100.00;70650.75;5054195;28;20025;-80
2022/09/13 11:07:38;;;;;;;0.45;0.45;;;;;;;-143.85;100.00;70650.75;5054391;28;20036;-79
2022/09/13 11:10:32;;;;;;;0.95;0.50;;;;;;;-143.85;100.00;70650.75;5053843;28;20052;-74
2022/09/13 11:13:11;;;;;;;0.43;0.43;;;;;;;-143.85;100.00;70650.75;5052440;28;20041;-74
2022/09/13 11:16:11;;;;;;;0.40;0.20;;;;;;;-143.85;100.00;70650.75;5052359;28;20078;-76
2022/09/13 11:18:55;;;;;;;0.32;0.32;;;;;;;-143.85;100.00;70650.75;5058283;28;20037;-74
2022/09/13 11:21:24;;;;;;;0.50;0.45;;;;;;;-143.85;100.00;70650.75;5052604;28;20063;-77
2022/09/13 11:23:52;;;;;;;0.50;0.50;;;;;;;-143.85;100.00;70650.75;5053394;28;20024;-80
2022/09/13 11:26:34;;;;;;;0.35;0.35;;;;;;;-143.85;100.00;70650.75;5062971;28;20055;-76
2022/09/13 11:29:08;;;;;;;3.40;0.70;;;;;;;-143.85;100.00;70650.75;5073580;28;20024;-79
2022/09/13 11:31:50;;;;;;;0.30;0.30;;;;;;;-143.85;100.00;70650.75;5055505;28;20037;-77